| time (UTC) | temp F | wind direction | speed knots | gust knots | rain 1hr in | rain 24hr in | rain mn in | humidity % | barometer mb |
| 20260504194504 | 60 | 184 | 1.7 | 7.8 | 0.00 | 0.00 | 0.00 | 65 | 1011.5 |
| 20260504194233 | 61 | 217 | 2.6 | 7.8 | 0.00 | 0.00 | 0.00 | 65 | 1011.5 |
| 20260504193309 | 61 | 152 | 0.9 | 7.8 | 0.00 | 0.00 | 0.00 | 65 | 1011.6 |
| 20260504193004 | 61 | 153 | 1.7 | 7.0 | 0.00 | 0.00 | 0.00 | 64 | 1011.6 |
| 20260504192229 | 62 | 172 | 3.5 | 7.0 | 0.00 | 0.00 | 0.00 | 63 | 1011.7 |
| 20260504191512 | 61 | 215 | 2.6 | 8.7 | 0.00 | 0.00 | 0.00 | 64 | 1011.7 |
| 20260504191240 | 62 | 232 | 2.6 | 12.2 | 0.00 | 0.00 | 0.00 | 63 | 1011.8 |
| 20260504190247 | 61 | 192 | 2.6 | 11.3 | 0.00 | 0.00 | 0.00 | 63 | 1011.9 |
| 20260504190045 | 61 | 187 | 4.3 | 11.3 | 0.00 | 0.00 | 0.00 | 62 | 1011.8 |
| 20260504185228 | 62 | 222 | 1.7 | 7.0 | 0.00 | 0.00 | 0.00 | 62 | 1011.9 |
| 20260504184550 | 62 | 229 | 0.9 | 9.6 | 0.00 | 0.00 | 0.00 | 61 | 1012.0 |
| 20260504184239 | 62 | 216 | 1.7 | 9.6 | 0.00 | 0.00 | 0.00 | 61 | 1012.0 |
| 20260504183248 | 63 | 198 | 3.5 | 7.8 | 0.00 | 0.00 | 0.00 | 61 | 1012.1 |
| 20260504183050 | 62 | 177 | 0.9 | 6.1 | 0.00 | 0.00 | 0.00 | 60 | 1012.0 |
| 20260504182233 | 63 | 166 | 1.7 | 7.8 | 0.00 | 0.00 | 0.00 | 60 | 1012.1 |
| 20260504181535 | 63 | 216 | 0.9 | 6.1 | 0.00 | 0.00 | 0.00 | 60 | 1012.1 |
| 20260504181238 | 63 | 171 | 0.9 | 6.1 | 0.00 | 0.00 | 0.00 | 60 | 1012.2 |
| 20260504180226 | 63 | 222 | 0.9 | 10.4 | 0.00 | 0.00 | 0.00 | 60 | 1012.3 |
| 20260504180050 | 63 | 227 | 1.7 | 10.4 | 0.00 | 0.00 | 0.00 | 60 | 1012.3 |
| 20260504175237 | 62 | 202 | 0.0 | 4.3 | 0.00 | 0.00 | 0.00 | 64 | 1012.3 |
| 20260504174526 | 62 | 166 | 0.9 | 6.1 | 0.00 | 0.00 | 0.00 | 62 | 1012.5 |
| 20260504174230 | 63 | 155 | 0.9 | 6.1 | 0.00 | 0.00 | 0.00 | 63 | 1012.4 |
| 20260504173241 | 63 | 140 | 0.0 | 8.7 | 0.00 | 0.00 | 0.00 | 64 | 1012.5 |
| 20260504173038 | 62 | 185 | 0.0 | 8.7 | 0.00 | 0.00 | 0.00 | 64 | 1012.5 |
| 20260504172233 | 62 | 157 | 0.9 | 7.8 | 0.00 | 0.00 | 0.00 | 64 | 1012.6 |
| 20260504171519 | 62 | 221 | 0.0 | 7.0 | 0.00 | 0.00 | 0.00 | 63 | 1012.8 |
| 20260504171222 | 62 | 223 | 1.7 | 7.0 | 0.00 | 0.00 | 0.00 | 61 | 1012.8 |
| 20260504170234 | 63 | 219 | 1.7 | 8.7 | 0.00 | 0.00 | 0.00 | 60 | 1013.0 |
| 20260504160243 | 63 | 202 | 0.9 | 6.1 | 0.00 | 0.00 | 0.00 | 56 | 1013.4 |
| 20260504150246 | 61 | 212 | 0.9 | 7.8 | 0.00 | 0.00 | 0.00 | 54 | 1014.1 |
| 20260504141248 | 60 | 217 | 3.5 | 9.6 | 0.00 | 0.00 | 0.00 | 53 | 1014.2 |
| 20260504140240 | 60 | 237 | 2.6 | 9.6 | 0.00 | 0.00 | 0.00 | 55 | 1014.2 |
| 20260504130252 | 57 | 234 | 0.0 | 7.8 | 0.00 | 0.00 | 0.00 | 62 | 1014.8 |
| 20260504120232 | 54 | 233 | 0.9 | 6.1 | 0.00 | 0.00 | 0.00 | 62 | 1014.9 |
| 20260504110227 | 51 | 238 | 0.0 | 2.6 | 0.00 | 0.00 | 0.00 | 67 | 1014.9 |
| 20260504100231 | 50 | 239 | 0.0 | 2.6 | 0.00 | 0.00 | 0.00 | 61 | 1014.7 |
| 20260504081512 | 49 | 247 | 0.0 | 0.0 | 0.00 | 0.00 | 0.00 | 61 | 1014.0 |
| 20260504081234 | 50 | 247 | 0.0 | 0.0 | 0.00 | 0.00 | 0.00 | 61 | 1014.1 |
| 20260504080229 | 50 | 247 | 0.0 | 2.6 | 0.00 | 0.00 | 0.00 | 61 | 1014.0 |
| 20260504070226 | 51 | 247 | 0.0 | 0.9 | 0.00 | 0.00 | 0.00 | 60 | 1013.6 |
| 20260504040011 | 44 | 274 | 0.0 | 0.0 | 0.00 | 0.00 | 0.00 | 67 | 1013.1 |
| 20260504035306 | 44 | 274 | 0.0 | 0.0 | 0.00 | 0.00 | 0.00 | 68 | 1013.0 |
| 20260504034539 | 44 | 274 | 0.0 | 0.0 | 0.00 | 0.00 | 0.00 | 68 | 1013.0 |
| 20260504034239 | 44 | 274 | 0.0 | 0.0 | 0.00 | 0.00 | 0.00 | 68 | 1013.0 |
| 20260504033224 | 44 | 274 | 0.0 | 0.0 | 0.00 | 0.00 | 0.00 | 68 | 1012.9 |
| 20260504033007 | 44 | 274 | 0.0 | 0.0 | 0.00 | 0.00 | 0.00 | 68 | 1012.9 |
| 20260504032237 | 45 | 274 | 0.0 | 0.0 | 0.00 | 0.00 | 0.00 | 68 | 1012.9 |
| 20260504031513 | 44 | 274 | 0.0 | 0.0 | 0.00 | 0.00 | 0.00 | 68 | 1012.9 |
| 20260504031223 | 45 | 274 | 0.0 | 0.0 | 0.00 | 0.00 | 0.00 | 68 | 1012.9 |
| 20260504030233 | 45 | 274 | 0.0 | 0.0 | 0.00 | 0.00 | 0.00 | 67 | 1012.8 |
| 20260504030041 | 45 | 274 | 0.0 | 0.0 | 0.00 | 0.00 | 0.00 | 67 | 1012.9 |
| 20260504025223 | 46 | 274 | 0.0 | 0.0 | 0.00 | 0.00 | 0.00 | 67 | 1012.9 |
| 20260504024524 | 45 | 274 | 0.0 | 0.0 | 0.00 | 0.00 | 0.00 | 65 | 1012.9 |
| 20260504024233 | 46 | 274 | 0.0 | 0.0 | 0.00 | 0.00 | 0.00 | 64 | 1012.9 |
| 20260504023222 | 46 | 274 | 0.0 | 0.0 | 0.00 | 0.00 | 0.00 | 63 | 1013.0 |
| 20260504023037 | 46 | 274 | 0.0 | 0.0 | 0.00 | 0.00 | 0.00 | 62 | 1013.0 |
| 20260504022231 | 46 | 274 | 0.0 | 0.0 | 0.00 | 0.00 | 0.00 | 64 | 1012.9 |
| 20260504021534 | 46 | 274 | 0.0 | 0.0 | 0.00 | 0.00 | 0.00 | 63 | 1012.8 |
| 20260504021248 | 47 | 274 | 0.0 | 0.0 | 0.00 | 0.00 | 0.00 | 63 | 1012.9 |
| 20260504020234 | 47 | 274 | 0.0 | 0.0 | 0.00 | 0.00 | 0.00 | 62 | 1012.8 |
| 20260504020040 | 47 | 274 | 0.0 | 0.0 | 0.00 | 0.00 | 0.00 | 61 | 1012.8 |
| 20260504015248 | 47 | 274 | 0.0 | 0.0 | 0.00 | 0.00 | 0.00 | 60 | 1012.8 |
| 20260504014540 | 47 | 274 | 0.0 | 0.0 | 0.00 | 0.00 | 0.00 | 61 | 1012.7 |
| 20260504014235 | 48 | 274 | 0.0 | 0.0 | 0.00 | 0.00 | 0.00 | 59 | 1012.7 |
| 20260504013232 | 48 | 274 | 0.0 | 0.0 | 0.00 | 0.00 | 0.00 | 61 | 1012.6 |
| 20260504013008 | 48 | 274 | 0.0 | 0.0 | 0.00 | 0.00 | 0.00 | 60 | 1012.5 |
| 20260504012248 | 49 | 274 | 0.0 | 0.0 | 0.00 | 0.00 | 0.00 | 58 | 1012.5 |
| 20260504011549 | 49 | 274 | 0.0 | 0.0 | 0.00 | 0.00 | 0.00 | 58 | 1012.4 |
| 20260504011241 | 50 | 274 | 0.0 | 0.0 | 0.00 | 0.00 | 0.00 | 56 | 1012.4 |
| 20260504010227 | 50 | 274 | 0.0 | 0.0 | 0.00 | 0.00 | 0.00 | 53 | 1012.2 |
| 20260504010020 | 50 | 274 | 0.0 | 0.0 | 0.00 | 0.00 | 0.00 | 54 | 1012.3 |
| 20260504005222 | 51 | 274 | 0.0 | 0.0 | 0.00 | 0.00 | 0.00 | 50 | 1012.1 |
| 20260504004523 | 52 | 274 | 0.0 | 0.0 | 0.00 | 0.00 | 0.00 | 49 | 1012.0 |
| 20260504004237 | 52 | 274 | 0.0 | 0.0 | 0.00 | 0.00 | 0.00 | 49 | 1012.0 |
| 20260504003232 | 54 | 274 | 0.0 | 0.0 | 0.00 | 0.00 | 0.00 | 46 | 1011.9 |
| 20260504003053 | 53 | 274 | 0.0 | 0.0 | 0.00 | 0.00 | 0.00 | 45 | 1011.9 |
| 20260504002227 | 55 | 274 | 0.0 | 0.0 | 0.00 | 0.00 | 0.00 | 40 | 1011.7 |
| 20260504001554 | 55 | 274 | 0.0 | 0.0 | 0.00 | 0.00 | 0.00 | 39 | 1011.6 |
| 20260504001243 | 56 | 274 | 0.0 | 0.0 | 0.00 | 0.00 | 0.00 | 37 | 1011.6 |
| 20260504000301 | 56 | 274 | 0.0 | 0.0 | 0.00 | 0.00 | 0.00 | 34 | 1011.5 |
| 20260504000040 | 56 | 274 | 0.0 | 0.0 | 0.00 | 0.00 | 0.00 | 34 | 1011.5 |
| 20260503235225 | 57 | 274 | 0.0 | 1.7 | 0.00 | 0.00 | 0.00 | 33 | 1011.3 |
| 20260503234559 | 56 | 283 | 0.0 | 0.0 | 0.00 | 0.00 | 0.00 | 33 | 1011.3 |
| 20260503234240 | 57 | 283 | 0.0 | 0.0 | 0.00 | 0.00 | 0.00 | 33 | 1011.2 |
| 20260503233256 | 58 | 283 | 0.0 | 2.6 | 0.00 | 0.00 | 0.00 | 32 | 1011.1 |
| 20260503233051 | 57 | 283 | 0.0 | 9.6 | 0.00 | 0.00 | 0.00 | 31 | 1011.1 |
| 20260503232230 | 58 | 273 | 0.9 | 10.4 | 0.00 | 0.00 | 0.00 | 31 | 1010.9 |
| 20260503231555 | 58 | 311 | 0.0 | 7.8 | 0.00 | 0.00 | 0.00 | 30 | 1010.9 |
| 20260503231225 | 58 | 331 | 0.0 | 7.8 | 0.00 | 0.00 | 0.00 | 30 | 1010.9 |
| 20260503230221 | 58 | 272 | 0.9 | 7.8 | 0.00 | 0.00 | 0.00 | 30 | 1010.9 |
| 20260503230024 | 58 | 211 | 0.0 | 9.6 | 0.00 | 0.00 | 0.00 | 31 | 1010.9 |
| 20260503224230 | 59 | 294 | 0.0 | 9.6 | 0.00 | 0.00 | 0.00 | 32 | 1010.8 |
| 20260503223307 | 59 | 317 | 3.5 | 13.9 | 0.00 | 0.00 | 0.00 | 29 | 1010.7 |
| 20260503223046 | 58 | 336 | 4.3 | 13.9 | 0.00 | 0.00 | 0.00 | 29 | 1010.9 |
| 20260503222229 | 59 | 235 | 3.5 | 13.0 | 0.00 | 0.00 | 0.00 | 29 | 1010.7 |
| 20260503221558 | 59 | 298 | 2.6 | 13.0 | 0.00 | 0.00 | 0.00 | 30 | 1010.6 |
| 20260503221240 | 59 | 292 | 0.0 | 11.3 | 0.00 | 0.00 | 0.00 | 31 | 1010.6 |
| 20260503220225 | 59 | 266 | 4.3 | 10.4 | 0.00 | 0.00 | 0.00 | 30 | 1010.6 |
| 20260503220026 | 58 | 290 | 0.0 | 10.4 | 0.00 | 0.00 | 0.00 | 31 | 1010.6 |
| 20260503215258 | 59 | 313 | 1.7 | 10.4 | 0.00 | 0.00 | 0.00 | 31 | 1010.6 |
| 20260503214515 | 58 | 227 | 2.6 | 11.3 | 0.00 | 0.00 | 0.00 | 31 | 1010.5 |
| 20260503214248 | 59 | 236 | 4.3 | 11.3 | 0.00 | 0.00 | 0.00 | 31 | 1010.6 |
| 20260503213233 | 59 | 277 | 2.6 | 8.7 | 0.00 | 0.00 | 0.00 | 32 | 1010.5 |
| 20260503213041 | 58 | 238 | 2.6 | 8.7 | 0.00 | 0.00 | 0.00 | 31 | 1010.5 |
| 20260503212226 | 59 | 348 | 0.9 | 13.9 | 0.00 | 0.00 | 0.00 | 31 | 1010.4 |
| 20260503211538 | 59 | 238 | 4.3 | 10.4 | 0.00 | 0.00 | 0.00 | 31 | 1010.4 |
| 20260503211236 | 59 | 326 | 1.7 | 16.5 | 0.00 | 0.00 | 0.00 | 32 | 1010.4 |
| 20260503210227 | 59 | 263 | 0.9 | 18.2 | 0.00 | 0.00 | 0.00 | 32 | 1010.2 |
| 20260503210006 | 58 | 294 | 5.2 | 18.2 | 0.00 | 0.00 | 0.00 | 31 | 1010.3 |
| 20260503205236 | 58 | 237 | 4.3 | 14.8 | 0.00 | 0.00 | 0.00 | 32 | 1010.2 |
| 20260503204508 | 58 | 317 | 2.6 | 12.2 | 0.00 | 0.00 | 0.00 | 33 | 1010.2 |
| 20260503204229 | 58 | 269 | 4.3 | 12.2 | 0.00 | 0.00 | 0.00 | 34 | 1010.3 |
| 20260503203241 | 58 | 307 | 0.9 | 17.4 | 0.00 | 0.00 | 0.00 | 35 | 1010.3 |
| 20260503203027 | 57 | 293 | 1.7 | 17.4 | 0.00 | 0.00 | 0.00 | 35 | 1010.3 |
| 20260503202226 | 58 | 269 | 5.2 | 13.9 | 0.00 | 0.00 | 0.00 | 34 | 1010.3 |
| 20260503201532 | 57 | 306 | 2.6 | 13.9 | 0.00 | 0.00 | 0.00 | 35 | 1010.5 |
| 20260503201236 | 58 | 292 | 7.0 | 13.9 | 0.00 | 0.00 | 0.00 | 34 | 1010.6 |
| 20260503200229 | 58 | 5 | 4.3 | 13.9 | 0.00 | 0.00 | 0.00 | 34 | 1010.6 |
| 20260503200058 | 57 | 256 | 3.5 | 13.9 | 0.00 | 0.00 | 0.00 | 35 | 1010.6 |
| 20260503195224 | 57 | 234 | 3.5 | 13.0 | 0.00 | 0.00 | 0.00 | 37 | 1010.6 |